createdAt,value
2023-03-01T00:01:17.225Z,68.59
2023-03-01T00:03:44.372Z,68.58
2023-03-01T00:06:11.506Z,69.08
2023-03-01T00:08:38.553Z,68.89
2023-03-01T00:11:09.210Z,68.68
2023-03-01T00:13:37.085Z,68.98
2023-03-01T00:16:08.183Z,68.21
2023-03-01T00:18:35.538Z,68.19
2023-03-01T00:21:03.228Z,67.69
2023-03-01T00:23:30.036Z,67.81
2023-03-01T00:25:56.915Z,68.07
2023-03-01T00:28:23.864Z,68.30
2023-03-01T00:30:50.914Z,68.12
2023-03-01T00:33:20.084Z,68.85
2023-03-01T00:35:46.991Z,68.51
2023-03-01T00:38:13.865Z,68.33
2023-03-01T00:40:40.641Z,68.64
2023-03-01T00:43:07.493Z,68.47
2023-03-01T00:45:34.385Z,68.20
2023-03-01T00:48:01.600Z,68.01
2023-03-01T00:50:30.128Z,67.88
2023-03-01T00:52:57.727Z,68.82
2023-03-01T00:55:25.715Z,68.97
2023-03-01T00:57:52.563Z,68.86
2023-03-01T01:00:20.752Z,68.76
2023-03-01T01:02:49.663Z,68.70
2023-03-01T01:05:16.676Z,69.11
2023-03-01T01:07:45.056Z,68.53
2023-03-01T01:10:12.187Z,68.90
2023-03-01T01:12:38.969Z,68.76
2023-03-01T01:15:07.609Z,68.91
2023-03-01T01:17:34.552Z,69.06
2023-03-01T01:20:02.422Z,69.22
2023-03-01T01:22:30.034Z,68.96
2023-03-01T01:24:58.313Z,69.14
2023-03-01T01:27:25.623Z,68.86
2023-03-01T01:29:54.397Z,68.49
2023-03-01T01:32:21.221Z,68.34
2023-03-01T01:34:48.391Z,68.31
2023-03-01T01:37:15.196Z,68.73
2023-03-01T01:39:42.274Z,69.11
2023-03-01T01:42:16.688Z,68.85
2023-03-01T01:44:47.276Z,68.99
2023-03-01T01:47:18.907Z,68.98
2023-03-01T01:49:49.946Z,68.85
2023-03-01T01:52:22.818Z,69.30
2023-03-01T01:54:58.632Z,69.14
2023-03-01T01:57:34.611Z,69.23
2023-03-01T02:00:07.419Z,68.92
2023-03-01T02:02:43.966Z,69.13
2023-03-01T02:05:21.643Z,69.01
2023-03-01T02:07:49.814Z,68.91
2023-03-01T02:10:21.817Z,68.57
2023-03-01T02:12:50.764Z,68.84
2023-03-01T02:15:17.800Z,69.04
2023-03-01T02:17:44.731Z,69.81
2023-03-01T02:20:30.123Z,69.33
2023-03-01T02:22:59.245Z,69.22
2023-03-01T02:25:41.326Z,69.91
2023-03-01T02:28:21.313Z,70.27
2023-03-01T02:30:51.537Z,70.00
2023-03-01T02:33:18.574Z,70.17
2023-03-01T02:35:45.605Z,71.23
2023-03-01T02:38:12.568Z,70.98
2023-03-01T02:40:41.687Z,70.56
2023-03-01T02:43:35.380Z,70.83
2023-03-01T02:46:09.153Z,70.42
2023-03-01T02:48:45.637Z,70.57
2023-03-01T02:51:32.898Z,70.54
2023-03-01T02:54:19.482Z,70.21
2023-03-01T02:56:46.908Z,70.71
2023-03-01T02:59:18.841Z,70.75
2023-03-01T03:01:47.375Z,70.50
2023-03-01T03:04:17.929Z,70.43
2023-03-01T03:06:50.245Z,70.82
2023-03-01T03:09:18.692Z,70.75
2023-03-01T03:11:46.862Z,70.91
2023-03-01T03:14:17.459Z,71.35
2023-03-01T03:16:49.786Z,71.66
2023-03-01T03:19:17.369Z,71.91
2023-03-01T03:21:44.413Z,71.32
2023-03-01T03:24:11.271Z,71.26
2023-03-01T03:26:38.149Z,71.71
2023-03-01T03:29:05.104Z,71.75
2023-03-01T03:31:33.473Z,71.57
2023-03-01T03:34:00.305Z,71.11
2023-03-01T03:36:27.453Z,71.18
2023-03-01T03:38:54.312Z,70.97
2023-03-01T03:41:21.344Z,71.31
2023-03-01T03:43:48.302Z,70.91
2023-03-01T03:46:15.581Z,71.45
2023-03-01T03:48:46.030Z,71.31
2023-03-01T03:51:15.493Z,72.29
2023-03-01T03:53:43.272Z,72.68
2023-03-01T03:56:10.569Z,72.72
2023-03-01T03:58:38.287Z,72.74
2023-03-01T04:01:05.990Z,72.70
2023-03-01T04:03:35.769Z,72.93
2023-03-01T04:06:04.953Z,72.30
2023-03-01T04:08:32.616Z,72.83
2023-03-01T04:11:03.055Z,72.16
2023-03-01T04:13:30.059Z,72.11
2023-03-01T04:15:56.822Z,73.72
2023-03-01T04:18:24.937Z,73.23
2023-03-01T04:20:54.017Z,73.61
2023-03-01T04:23:22.608Z,73.65
2023-03-01T04:25:52.758Z,73.77
2023-03-01T04:28:19.876Z,73.91
2023-03-01T04:30:47.293Z,73.63
2023-03-01T04:33:14.304Z,73.35
2023-03-01T04:35:41.313Z,74.63
2023-03-01T04:38:09.300Z,74.04
2023-03-01T04:40:38.416Z,75.39
2023-03-01T04:43:05.715Z,74.87
2023-03-01T04:45:34.372Z,74.31
2023-03-01T04:48:02.168Z,74.34
2023-03-01T04:50:29.322Z,74.55
2023-03-01T04:52:57.008Z,74.67
2023-03-01T04:55:23.888Z,75.10
2023-03-01T04:57:52.318Z,74.80
2023-03-01T05:00:20.192Z,74.43
2023-03-01T05:02:49.549Z,74.92
2023-03-01T05:05:16.998Z,74.46
2023-03-01T05:07:43.778Z,74.67
2023-03-01T05:10:11.430Z,74.67
2023-03-01T05:12:38.207Z,74.36
2023-03-01T05:15:08.517Z,74.33
2023-03-01T05:17:35.405Z,74.12
2023-03-01T05:20:02.718Z,74.62
2023-03-01T05:22:29.541Z,73.97
2023-03-01T05:24:56.358Z,73.80
2023-03-01T05:27:23.149Z,74.31
2023-03-01T05:29:49.928Z,73.93
2023-03-01T05:32:18.710Z,73.74
2023-03-01T05:34:45.713Z,73.10
2023-03-01T05:37:13.072Z,73.50
2023-03-01T05:39:40.406Z,73.82
2023-03-01T05:42:07.245Z,73.24
2023-03-01T05:44:34.117Z,73.22
2023-03-01T05:47:01.066Z,73.82
2023-03-01T05:49:29.190Z,74.22
2023-03-01T05:51:57.432Z,73.30
2023-03-01T05:54:24.438Z,74.35
2023-03-01T05:56:51.233Z,74.02
2023-03-01T05:59:18.224Z,73.32
2023-03-01T06:01:45.072Z,74.24
2023-03-01T06:04:11.948Z,75.11
2023-03-01T06:06:40.277Z,73.74
2023-03-01T06:09:08.455Z,74.58
2023-03-01T06:11:35.816Z,74.59
2023-03-01T06:14:03.819Z,75.01
2023-03-01T06:16:31.055Z,74.24
2023-03-01T06:18:58.156Z,74.59
2023-03-01T06:21:25.505Z,74.00
2023-03-01T06:23:53.810Z,73.48
2023-03-01T06:26:20.697Z,74.10
2023-03-01T06:28:47.606Z,72.88
2023-03-01T06:31:14.518Z,74.87
2023-03-01T06:33:41.828Z,72.50
2023-03-01T06:36:09.953Z,72.76
2023-03-01T06:38:37.490Z,72.06
2023-03-01T06:41:05.760Z,71.40
2023-03-01T06:43:32.588Z,69.51
2023-03-01T06:45:59.409Z,68.93
2023-03-01T06:48:26.409Z,67.33
2023-03-01T06:50:53.294Z,64.25
2023-03-01T06:53:20.467Z,62.21
2023-03-01T06:55:47.313Z,60.63
2023-03-01T06:58:15.489Z,58.25
2023-03-01T07:00:42.884Z,55.96
2023-03-01T07:03:10.084Z,57.89
2023-03-01T07:05:37.057Z,55.14
2023-03-01T07:08:04.124Z,54.57
2023-03-01T07:10:32.391Z,52.77
2023-03-01T07:12:59.773Z,52.48
2023-03-01T07:15:29.018Z,50.21
2023-03-01T07:17:57.454Z,48.55
2023-03-01T07:20:24.358Z,46.75
2023-03-01T07:22:51.195Z,47.37
2023-03-01T07:25:18.368Z,46.43
2023-03-01T07:27:49.952Z,47.04
2023-03-01T07:30:18.513Z,45.65
2023-03-01T07:32:47.304Z,44.23
2023-03-01T07:35:14.325Z,44.17
2023-03-01T07:37:41.253Z,42.88
2023-03-01T07:40:10.278Z,43.27
2023-03-01T07:42:37.936Z,43.33
2023-03-01T07:45:08.141Z,43.65
2023-03-01T07:47:34.917Z,50.49
2023-03-01T07:50:04.152Z,52.30
2023-03-01T07:52:32.136Z,52.45
2023-03-01T07:55:00.801Z,54.85
2023-03-01T07:57:27.569Z,55.13
2023-03-01T07:59:54.415Z,53.90
2023-03-01T08:02:21.259Z,54.32
2023-03-01T08:04:48.111Z,54.59
2023-03-01T08:07:16.294Z,53.41
2023-03-01T08:09:43.958Z,54.00
2023-03-01T08:12:10.876Z,51.89
2023-03-01T08:14:37.718Z,50.54
2023-03-01T08:17:06.216Z,53.38
2023-03-01T08:19:33.195Z,52.57
2023-03-01T08:22:00.148Z,53.59
2023-03-01T08:24:29.644Z,51.61
2023-03-01T08:26:56.966Z,54.54
2023-03-01T08:29:24.713Z,51.45
2023-03-01T08:31:51.956Z,54.17
2023-03-01T08:34:19.502Z,53.01
2023-03-01T08:36:48.064Z,55.29
2023-03-01T08:39:17.975Z,57.26
2023-03-01T08:41:48.222Z,53.47
2023-03-01T08:44:17.037Z,54.88
2023-03-01T08:46:46.413Z,51.14
2023-03-01T08:49:16.774Z,52.04
2023-03-01T08:51:45.776Z,54.58
2023-03-01T08:54:15.565Z,52.32
2023-03-01T08:56:43.641Z,50.92
2023-03-01T08:59:14.867Z,51.40
2023-03-01T09:01:42.540Z,54.66
2023-03-01T09:06:36.405Z,57.09
2023-03-01T09:09:05.546Z,56.54
2023-03-01T09:11:32.902Z,55.50
2023-03-01T09:14:01.142Z,56.11
2023-03-01T09:16:30.186Z,55.73
2023-03-01T09:18:59.323Z,55.77
2023-03-01T09:21:39.784Z,55.10
2023-03-01T09:24:14.901Z,54.81
2023-03-01T09:26:43.295Z,54.42
2023-03-01T09:29:10.162Z,49.82
2023-03-01T09:31:40.315Z,51.56
2023-03-01T09:34:08.893Z,51.61
2023-03-01T09:36:38.636Z,52.77
2023-03-01T09:39:07.121Z,48.45
2023-03-01T09:41:56.155Z,45.15
2023-03-01T09:44:37.302Z,50.67
2023-03-01T09:47:17.502Z,50.50
2023-03-01T09:49:56.027Z,50.45
2023-03-01T09:52:34.574Z,48.05
2023-03-01T09:55:11.385Z,50.54
2023-03-01T09:57:51.360Z,49.44
2023-03-01T10:00:34.286Z,47.79
2023-03-01T10:03:17.376Z,48.63
2023-03-01T10:06:00.743Z,43.65
2023-03-01T10:08:43.611Z,39.70
2023-03-01T10:11:49.746Z,38.91
2023-03-01T10:14:34.628Z,37.04
2023-03-01T10:17:10.524Z,38.71
2023-03-01T10:19:42.978Z,40.85
2023-03-01T10:22:18.605Z,37.95
2023-03-01T10:24:45.784Z,39.70
2023-03-01T10:27:22.692Z,35.73
2023-03-01T10:30:00.259Z,38.61
2023-03-01T10:32:27.729Z,36.22
2023-03-01T10:41:14.705Z,37.41
2023-03-01T10:43:48.377Z,34.53
2023-03-01T10:46:28.792Z,37.38
2023-03-01T10:49:16.372Z,36.54
2023-03-01T10:51:48.215Z,37.75
2023-03-01T10:54:22.979Z,38.46
2023-03-01T10:56:54.174Z,36.37
2023-03-01T10:59:28.694Z,38.47
2023-03-01T11:02:26.055Z,34.18
2023-03-01T11:05:02.283Z,33.91
2023-03-01T11:07:31.784Z,31.48
2023-03-01T11:09:58.598Z,31.73
2023-03-01T11:12:26.561Z,30.70
2023-03-01T11:14:56.414Z,30.50
2023-03-01T11:17:30.002Z,29.87
2023-03-01T11:20:05.813Z,34.80
2023-03-01T11:22:43.349Z,38.14
2023-03-01T11:25:16.020Z,35.91
2023-03-01T11:27:46.553Z,40.85
2023-03-01T11:30:24.355Z,42.38
2023-03-01T11:33:06.264Z,38.52
2023-03-01T11:35:36.661Z,35.24
2023-03-01T11:38:22.232Z,34.47
2023-03-01T11:40:58.266Z,34.37
2023-03-01T11:43:36.802Z,32.05
2023-03-01T11:46:42.069Z,42.82
2023-03-01T11:49:37.683Z,40.14
2023-03-01T11:52:23.347Z,36.92
2023-03-01T11:55:20.506Z,39.55
2023-03-01T11:58:26.006Z,42.42
2023-03-01T12:01:17.217Z,42.30
2023-03-01T12:04:15.360Z,39.51
2023-03-01T12:06:57.771Z,43.63
2023-03-01T12:09:42.881Z,41.54
2023-03-01T12:12:32.129Z,46.47
2023-03-01T12:15:42.965Z,44.98
2023-03-01T12:18:41.385Z,42.93
2023-03-01T12:21:23.449Z,43.40
2023-03-01T12:24:36.177Z,42.69
2023-03-01T12:27:25.123Z,42.37
2023-03-01T12:30:06.384Z,47.12
2023-03-01T12:32:53.346Z,47.54
2023-03-01T12:36:04.860Z,47.57
2023-03-01T12:38:42.730Z,48.42
2023-03-01T12:41:42.833Z,48.33
2023-03-01T12:44:31.373Z,49.69
2023-03-01T12:47:20.608Z,46.82
2023-03-01T12:49:56.209Z,47.44
2023-03-01T12:52:36.825Z,47.69
2023-03-01T12:55:26.939Z,48.48
2023-03-01T12:58:13.332Z,47.52
2023-03-01T13:01:01.425Z,46.21
2023-03-01T13:04:00.668Z,45.90
2023-03-01T13:06:43.269Z,45.83
2023-03-01T13:09:28.350Z,46.09
2023-03-01T13:11:55.167Z,47.15
2023-03-01T13:14:49.949Z,46.84
2023-03-01T13:17:44.691Z,48.87
2023-03-01T13:20:20.870Z,47.33
2023-03-01T13:23:00.665Z,47.99
2023-03-01T13:25:34.682Z,48.38
2023-03-01T13:28:46.803Z,48.31
2023-03-01T13:32:00.947Z,47.50
2023-03-01T13:34:52.737Z,46.95
2023-03-01T13:37:52.862Z,48.51
2023-03-01T13:41:01.283Z,48.70
2023-03-01T13:43:35.408Z,48.24
2023-03-01T13:46:12.514Z,49.38
2023-03-01T13:48:40.854Z,47.32
2023-03-01T13:51:12.698Z,48.75
2023-03-01T13:53:45.113Z,48.38
2023-03-01T13:56:17.125Z,47.66
2023-03-01T13:58:54.677Z,47.43
2023-03-01T14:01:25.906Z,48.27
2023-03-01T14:03:53.746Z,48.01
2023-03-01T14:06:28.120Z,49.30
2023-03-01T14:09:09.422Z,48.43
2023-03-01T14:12:03.084Z,49.08
2023-03-01T14:14:42.884Z,49.12
2023-03-01T14:17:41.407Z,48.67
2023-03-01T14:20:19.136Z,47.33
2023-03-01T14:22:50.783Z,47.11
2023-03-01T14:25:28.851Z,48.31
2023-03-01T14:28:02.895Z,48.39
2023-03-01T14:30:37.275Z,48.04
2023-03-01T14:33:18.642Z,48.30
2023-03-01T14:35:56.078Z,47.48
2023-03-01T14:38:31.558Z,46.91
2023-03-01T14:41:04.539Z,48.04
2023-03-01T14:43:34.651Z,46.99
2023-03-01T14:46:01.870Z,47.16
2023-03-01T14:48:32.021Z,46.63
2023-03-01T14:50:59.079Z,47.08
2023-03-01T14:53:34.141Z,47.03
2023-03-01T14:56:05.603Z,47.22
2023-03-01T14:58:34.047Z,46.98
2023-03-01T15:01:05.624Z,46.68
2023-03-01T15:03:37.179Z,47.04
2023-03-01T15:06:07.895Z,47.89
2023-03-01T15:08:41.950Z,47.76
2023-03-01T15:11:21.671Z,46.86
2023-03-01T15:13:48.506Z,47.01
2023-03-01T15:16:19.259Z,46.69
2023-03-01T15:18:49.463Z,47.17
2023-03-01T15:21:22.448Z,47.12
2023-03-01T15:23:55.122Z,47.03
2023-03-01T15:26:26.566Z,46.03
2023-03-01T15:28:58.658Z,46.28
2023-03-01T15:31:29.151Z,46.61
2023-03-01T15:34:11.795Z,46.90
2023-03-01T15:36:44.901Z,47.25
2023-03-01T15:39:41.597Z,47.30
2023-03-01T15:42:11.630Z,47.02
2023-03-01T15:44:43.703Z,46.24
2023-03-01T15:47:29.716Z,46.50
2023-03-01T15:49:58.980Z,46.11
2023-03-01T15:52:30.482Z,47.36
2023-03-01T15:55:04.745Z,46.67
2023-03-01T15:57:31.612Z,46.83
2023-03-01T15:59:58.430Z,47.36
2023-03-01T16:02:26.001Z,46.32
2023-03-01T16:04:52.835Z,46.81
2023-03-01T16:07:19.698Z,46.79
2023-03-01T16:09:46.467Z,47.25
2023-03-01T16:12:17.370Z,46.54
2023-03-01T16:14:44.415Z,47.49
2023-03-01T16:17:11.359Z,47.04
2023-03-01T16:19:38.554Z,48.13
2023-03-01T16:22:05.701Z,47.56
2023-03-01T16:24:33.086Z,47.17
2023-03-01T16:26:59.998Z,47.72
2023-03-01T16:29:28.201Z,48.92
2023-03-01T16:31:55.757Z,48.81
2023-03-01T16:34:22.869Z,47.91
2023-03-01T16:36:50.139Z,48.58
2023-03-01T16:39:17.163Z,48.69
2023-03-01T16:41:44.230Z,49.25
2023-03-01T16:44:11.100Z,48.62
2023-03-01T16:46:39.260Z,49.53
2023-03-01T16:49:06.011Z,49.74
2023-03-01T16:51:33.166Z,49.26
2023-03-01T16:54:00.174Z,49.51
2023-03-01T16:56:27.066Z,49.71
2023-03-01T16:58:54.454Z,49.37
2023-03-01T17:01:21.921Z,49.40
2023-03-01T17:03:50.968Z,49.83
2023-03-01T17:06:21.534Z,50.52
2023-03-01T17:08:48.643Z,51.19
2023-03-01T17:11:19.161Z,51.01
2023-03-01T17:13:46.830Z,51.10
2023-03-01T17:16:16.593Z,51.93
2023-03-01T17:18:44.415Z,51.93
2023-03-01T17:21:13.788Z,51.71
2023-03-01T17:23:44.942Z,52.10
2023-03-01T17:26:14.074Z,52.33
2023-03-01T17:28:41.901Z,53.06
2023-03-01T17:31:08.674Z,52.52
2023-03-01T17:33:36.582Z,52.71
2023-03-01T17:36:03.877Z,52.42
2023-03-01T17:38:32.021Z,52.55
2023-03-01T17:41:00.570Z,53.03
2023-03-01T17:43:27.723Z,53.14
2023-03-01T17:45:55.562Z,52.72
2023-03-01T17:48:22.965Z,53.24
2023-03-01T17:50:50.442Z,53.19
2023-03-01T17:53:17.780Z,53.21
2023-03-01T17:55:45.998Z,52.95
2023-03-01T17:58:15.147Z,54.25
2023-03-01T18:00:42.048Z,54.51
2023-03-01T18:03:08.882Z,54.25
2023-03-01T18:05:37.177Z,54.04
2023-03-01T18:08:05.322Z,54.04
2023-03-01T18:10:33.911Z,54.73
2023-03-01T18:13:02.160Z,54.77
2023-03-01T18:15:29.099Z,55.36
2023-03-01T18:17:55.853Z,55.04
2023-03-01T18:20:23.818Z,55.08
2023-03-01T18:22:50.615Z,55.42
2023-03-01T18:25:17.401Z,55.94
2023-03-01T18:27:44.341Z,56.14
2023-03-01T18:30:14.837Z,55.85
2023-03-01T18:32:41.615Z,56.90
2023-03-01T18:35:08.807Z,57.65
2023-03-01T18:37:35.882Z,57.85
2023-03-01T18:40:02.708Z,57.67
2023-03-01T18:42:29.527Z,57.25
2023-03-01T18:44:56.245Z,57.88
2023-03-01T18:47:24.377Z,57.22
2023-03-01T18:49:51.246Z,56.99
2023-03-01T18:52:18.140Z,57.45
2023-03-01T18:54:44.904Z,57.44
2023-03-01T18:57:11.903Z,57.47
2023-03-01T18:59:38.820Z,57.09
2023-03-01T19:02:06.945Z,57.32
2023-03-01T19:04:36.137Z,57.21
2023-03-01T19:07:03.136Z,57.03
2023-03-01T19:09:30.905Z,57.26
2023-03-01T19:11:57.715Z,57.47
2023-03-01T19:14:24.679Z,57.89
2023-03-01T19:16:51.594Z,57.67
2023-03-01T19:19:18.374Z,57.91
2023-03-01T19:21:59.531Z,59.08
2023-03-01T19:24:32.918Z,58.88
2023-03-01T19:26:59.863Z,62.61
2023-03-01T19:29:26.758Z,63.74
2023-03-01T19:31:53.656Z,63.40
2023-03-01T19:34:20.778Z,62.93
2023-03-01T19:36:48.999Z,62.89
2023-03-01T19:39:15.767Z,62.08
2023-03-01T19:41:43.680Z,61.86
2023-03-01T19:44:11.863Z,61.70
2023-03-01T19:46:39.044Z,60.88
2023-03-01T19:49:06.581Z,60.03
2023-03-01T19:51:34.450Z,60.03
2023-03-01T19:54:03.948Z,60.50
2023-03-01T19:56:31.185Z,60.18
2023-03-01T19:58:58.170Z,60.37
2023-03-01T20:01:25.648Z,60.37
2023-03-01T20:03:52.872Z,60.40
2023-03-01T20:06:20.273Z,59.82
2023-03-01T20:08:48.710Z,60.23
2023-03-01T20:11:19.294Z,60.31
2023-03-01T20:13:46.537Z,60.33
2023-03-01T20:16:17.275Z,60.23
2023-03-01T20:18:44.453Z,60.76
2023-03-01T20:21:21.755Z,60.91
2023-03-01T20:23:50.406Z,60.99
2023-03-01T20:26:20.169Z,60.90
2023-03-01T20:28:51.290Z,60.93
2023-03-01T20:31:21.527Z,61.17
2023-03-01T20:33:48.965Z,61.99
2023-03-01T20:36:17.043Z,60.53
2023-03-01T20:38:43.834Z,61.23
2023-03-01T20:41:13.461Z,60.96
2023-03-01T20:43:42.579Z,61.16
2023-03-01T20:46:13.020Z,60.01
2023-03-01T20:48:41.860Z,61.13
2023-03-01T20:51:11.477Z,61.22
2023-03-01T20:53:48.629Z,61.36
2023-03-01T20:56:40.678Z,60.44
2023-03-01T20:59:12.668Z,61.19
2023-03-01T21:01:39.620Z,61.21
2023-03-01T21:04:06.968Z,61.26
2023-03-01T21:06:34.363Z,61.84
2023-03-01T21:09:01.688Z,61.88
2023-03-01T21:11:28.475Z,61.79
2023-03-01T21:13:57.005Z,61.97
2023-03-01T21:16:25.348Z,62.29
2023-03-01T21:18:52.176Z,62.61
2023-03-01T21:21:22.579Z,61.94
2023-03-01T21:23:49.530Z,63.14
2023-03-01T21:26:19.582Z,62.56
2023-03-01T21:28:47.876Z,62.75
2023-03-01T21:31:18.903Z,62.75
2023-03-01T21:33:50.573Z,63.01
2023-03-01T21:36:19.013Z,62.87
2023-03-01T21:38:48.707Z,63.50
2023-03-01T21:41:19.256Z,63.15
2023-03-01T21:43:49.789Z,63.07
2023-03-01T21:46:19.498Z,63.48
2023-03-01T21:48:49.434Z,64.01
2023-03-01T21:51:19.834Z,63.51
2023-03-01T21:53:47.150Z,63.65
2023-03-01T21:56:17.098Z,63.40
2023-03-01T21:58:44.158Z,64.13
2023-03-01T22:01:13.888Z,60.99
2023-03-01T22:03:41.623Z,62.97
2023-03-01T22:06:09.833Z,63.40
2023-03-01T22:08:36.593Z,63.48
2023-03-01T22:11:04.038Z,63.77
2023-03-01T22:13:30.862Z,64.50
2023-03-01T22:16:00.136Z,63.44
2023-03-01T22:18:26.986Z,65.46
2023-03-01T22:20:53.937Z,64.04
2023-03-01T22:23:22.095Z,64.11
2023-03-01T22:25:48.911Z,63.49
2023-03-01T22:28:15.693Z,69.72
2023-03-01T22:34:29.938Z,64.26
2023-03-01T22:36:56.876Z,64.36
2023-03-01T22:39:25.036Z,64.61
2023-03-01T22:41:54.443Z,66.16
2023-03-01T22:44:23.602Z,65.52
2023-03-01T22:46:51.025Z,66.42
2023-03-01T22:49:19.049Z,64.88
2023-03-01T22:51:46.764Z,65.76
2023-03-01T22:54:14.214Z,66.64
2023-03-01T22:56:43.035Z,66.39
2023-03-01T22:59:13.534Z,65.76
2023-03-01T23:01:45.170Z,66.61
2023-03-01T23:04:13.146Z,66.41
2023-03-01T23:06:39.897Z,65.71
2023-03-01T23:09:06.717Z,66.50
2023-03-01T23:11:33.562Z,65.70
2023-03-01T23:14:01.731Z,66.38
2023-03-01T23:16:28.614Z,65.84
2023-03-01T23:18:56.904Z,66.07
2023-03-01T23:21:23.731Z,68.91
2023-03-01T23:23:50.938Z,66.71
2023-03-01T23:26:19.296Z,67.30
2023-03-01T23:28:46.170Z,66.97
2023-03-01T23:31:15.842Z,66.54
2023-03-01T23:33:44.695Z,65.88
2023-03-01T23:36:18.307Z,67.79
2023-03-01T23:38:46.019Z,65.80
2023-03-01T23:41:15.917Z,66.23
2023-03-01T23:43:45.118Z,66.14
2023-03-01T23:46:13.597Z,66.33
2023-03-01T23:48:40.867Z,66.55
2023-03-01T23:51:09.308Z,67.81
2023-03-01T23:53:39.385Z,67.39
2023-03-01T23:56:08.446Z,67.60
2023-03-01T23:58:35.274Z,67.03
